sensor_id;sensor_type;location;lat;lon;timestamp;P1;durP1;ratioP1;P2;durP2;ratioP2
19810;SDS011;10065;49.632;8.346;2023-02-05T00:00:14;21.57;;;8.30;;
19810;SDS011;10065;49.632;8.346;2023-02-05T00:02:43;18.10;;;7.60;;
19810;SDS011;10065;49.632;8.346;2023-02-05T00:05:12;20.73;;;8.60;;
19810;SDS011;10065;49.632;8.346;2023-02-05T00:07:39;20.43;;;7.60;;
19810;SDS011;10065;49.632;8.346;2023-02-05T00:10:07;22.43;;;7.00;;
19810;SDS011;10065;49.632;8.346;2023-02-05T00:12:35;23.13;;;6.93;;
19810;SDS011;10065;49.632;8.346;2023-02-05T00:15:04;24.03;;;9.13;;
19810;SDS011;10065;49.632;8.346;2023-02-05T00:17:33;22.30;;;7.00;;
19810;SDS011;10065;49.632;8.346;2023-02-05T00:20:01;17.90;;;8.07;;
19810;SDS011;10065;49.632;8.346;2023-02-05T00:22:30;17.93;;;7.80;;
19810;SDS011;10065;49.632;8.346;2023-02-05T00:24:59;17.37;;;7.40;;
19810;SDS011;10065;49.632;8.346;2023-02-05T00:27:27;14.47;;;7.17;;
19810;SDS011;10065;49.632;8.346;2023-02-05T00:29:54;19.47;;;7.33;;
19810;SDS011;10065;49.632;8.346;2023-02-05T00:32:22;15.83;;;7.43;;
19810;SDS011;10065;49.632;8.346;2023-02-05T00:34:50;19.67;;;7.43;;
19810;SDS011;10065;49.632;8.346;2023-02-05T00:37:18;19.83;;;7.30;;
19810;SDS011;10065;49.632;8.346;2023-02-05T00:39:47;17.07;;;7.40;;
19810;SDS011;10065;49.632;8.346;2023-02-05T00:42:15;22.03;;;8.43;;
19810;SDS011;10065;49.632;8.346;2023-02-05T00:44:43;17.67;;;7.87;;
19810;SDS011;10065;49.632;8.346;2023-02-05T00:47:10;30.17;;;8.73;;
19810;SDS011;10065;49.632;8.346;2023-02-05T00:49:38;19.40;;;8.17;;
19810;SDS011;10065;49.632;8.346;2023-02-05T00:52:06;24.30;;;7.33;;
19810;SDS011;10065;49.632;8.346;2023-02-05T00:54:34;20.03;;;8.70;;
19810;SDS011;10065;49.632;8.346;2023-02-05T00:57:03;17.37;;;7.10;;
19810;SDS011;10065;49.632;8.346;2023-02-05T00:59:31;20.73;;;8.33;;
19810;SDS011;10065;49.632;8.346;2023-02-05T01:01:59;20.00;;;7.10;;
19810;SDS011;10065;49.632;8.346;2023-02-05T01:04:26;20.43;;;7.10;;
19810;SDS011;10065;49.632;8.346;2023-02-05T01:06:54;20.83;;;7.33;;
19810;SDS011;10065;49.632;8.346;2023-02-05T01:09:22;18.00;;;7.93;;
19810;SDS011;10065;49.632;8.346;2023-02-05T01:11:50;15.40;;;7.67;;
19810;SDS011;10065;49.632;8.346;2023-02-05T01:14:19;20.40;;;7.50;;
19810;SDS011;10065;49.632;8.346;2023-02-05T01:16:47;18.93;;;7.37;;
19810;SDS011;10065;49.632;8.346;2023-02-05T01:19:15;19.57;;;6.70;;
19810;SDS011;10065;49.632;8.346;2023-02-05T01:21:42;16.53;;;7.60;;
19810;SDS011;10065;49.632;8.346;2023-02-05T01:24:10;18.27;;;6.90;;
19810;SDS011;10065;49.632;8.346;2023-02-05T01:26:38;20.17;;;7.87;;
19810;SDS011;10065;49.632;8.346;2023-02-05T01:29:06;16.67;;;7.30;;
19810;SDS011;10065;49.632;8.346;2023-02-05T01:31:35;20.57;;;7.73;;
19810;SDS011;10065;49.632;8.346;2023-02-05T01:34:03;19.10;;;7.53;;
19810;SDS011;10065;49.632;8.346;2023-02-05T01:36:31;17.20;;;7.67;;
19810;SDS011;10065;49.632;8.346;2023-02-05T01:38:58;19.43;;;7.57;;
19810;SDS011;10065;49.632;8.346;2023-02-05T01:41:27;13.87;;;6.67;;
19810;SDS011;10065;49.632;8.346;2023-02-05T01:44:05;18.53;;;7.10;;
19810;SDS011;10065;49.632;8.346;2023-02-05T01:46:35;16.37;;;6.67;;
19810;SDS011;10065;49.632;8.346;2023-02-05T01:49:04;18.30;;;8.33;;
19810;SDS011;10065;49.632;8.346;2023-02-05T01:51:34;18.67;;;6.73;;
19810;SDS011;10065;49.632;8.346;2023-02-05T01:54:04;15.53;;;6.97;;
19810;SDS011;10065;49.632;8.346;2023-02-05T01:56:34;18.13;;;7.07;;
19810;SDS011;10065;49.632;8.346;2023-02-05T01:59:07;18.33;;;6.67;;
19810;SDS011;10065;49.632;8.346;2023-02-05T02:01:39;17.97;;;6.37;;
19810;SDS011;10065;49.632;8.346;2023-02-05T02:04:08;15.50;;;6.27;;
19810;SDS011;10065;49.632;8.346;2023-02-05T02:06:37;17.97;;;6.10;;
19810;SDS011;10065;49.632;8.346;2023-02-05T02:09:05;24.40;;;6.33;;
19810;SDS011;10065;49.632;8.346;2023-02-05T02:11:34;20.33;;;5.77;;
19810;SDS011;10065;49.632;8.346;2023-02-05T02:14:05;16.00;;;6.03;;
19810;SDS011;10065;49.632;8.346;2023-02-05T02:16:34;15.90;;;6.10;;
19810;SDS011;10065;49.632;8.346;2023-02-05T02:19:09;15.73;;;5.83;;
19810;SDS011;10065;49.632;8.346;2023-02-05T02:21:51;17.40;;;5.90;;
19810;SDS011;10065;49.632;8.346;2023-02-05T02:25:00;14.87;;;5.43;;
19810;SDS011;10065;49.632;8.346;2023-02-05T02:27:40;18.60;;;6.53;;
19810;SDS011;10065;49.632;8.346;2023-02-05T02:30:13;17.10;;;5.07;;
19810;SDS011;10065;49.632;8.346;2023-02-05T02:32:48;15.70;;;6.07;;
19810;SDS011;10065;49.632;8.346;2023-02-05T02:35:22;16.27;;;5.40;;
19810;SDS011;10065;49.632;8.346;2023-02-05T02:37:55;10.37;;;4.43;;
19810;SDS011;10065;49.632;8.346;2023-02-05T02:40:28;12.63;;;5.00;;
19810;SDS011;10065;49.632;8.346;2023-02-05T02:43:04;10.50;;;4.43;;
19810;SDS011;10065;49.632;8.346;2023-02-05T02:45:36;12.33;;;4.30;;
19810;SDS011;10065;49.632;8.346;2023-02-05T02:48:11;12.47;;;4.27;;
19810;SDS011;10065;49.632;8.346;2023-02-05T02:50:42;15.37;;;4.80;;
19810;SDS011;10065;49.632;8.346;2023-02-05T02:53:15;13.97;;;4.10;;
19810;SDS011;10065;49.632;8.346;2023-02-05T02:55:45;11.03;;;4.03;;
19810;SDS011;10065;49.632;8.346;2023-02-05T02:58:17;10.60;;;4.13;;
19810;SDS011;10065;49.632;8.346;2023-02-05T03:00:47;8.50;;;3.53;;
19810;SDS011;10065;49.632;8.346;2023-02-05T03:03:16;9.37;;;3.73;;
19810;SDS011;10065;49.632;8.346;2023-02-05T03:05:49;9.73;;;3.03;;
19810;SDS011;10065;49.632;8.346;2023-02-05T03:08:22;9.40;;;3.57;;
19810;SDS011;10065;49.632;8.346;2023-02-05T03:10:54;8.80;;;4.03;;
19810;SDS011;10065;49.632;8.346;2023-02-05T03:13:29;11.37;;;3.93;;
19810;SDS011;10065;49.632;8.346;2023-02-05T03:15:58;9.27;;;3.87;;
19810;SDS011;10065;49.632;8.346;2023-02-05T03:18:27;8.20;;;3.10;;
19810;SDS011;10065;49.632;8.346;2023-02-05T03:20:58;10.17;;;3.60;;
19810;SDS011;10065;49.632;8.346;2023-02-05T03:23:30;11.27;;;3.57;;
19810;SDS011;10065;49.632;8.346;2023-02-05T03:25:58;7.97;;;3.37;;
19810;SDS011;10065;49.632;8.346;2023-02-05T03:28:26;12.90;;;3.50;;
19810;SDS011;10065;49.632;8.346;2023-02-05T03:30:56;10.37;;;3.60;;
19810;SDS011;10065;49.632;8.346;2023-02-05T03:33:32;6.67;;;3.07;;
19810;SDS011;10065;49.632;8.346;2023-02-05T03:36:08;9.67;;;3.30;;
19810;SDS011;10065;49.632;8.346;2023-02-05T03:38:53;7.27;;;2.83;;
19810;SDS011;10065;49.632;8.346;2023-02-05T03:41:34;7.63;;;2.97;;
19810;SDS011;10065;49.632;8.346;2023-02-05T03:44:25;7.93;;;3.90;;
19810;SDS011;10065;49.632;8.346;2023-02-05T03:47:07;9.80;;;3.97;;
19810;SDS011;10065;49.632;8.346;2023-02-05T03:49:41;7.70;;;3.33;;
19810;SDS011;10065;49.632;8.346;2023-02-05T03:52:18;7.97;;;3.30;;
19810;SDS011;10065;49.632;8.346;2023-02-05T03:54:55;9.33;;;3.60;;
19810;SDS011;10065;49.632;8.346;2023-02-05T03:57:31;6.20;;;2.80;;
19810;SDS011;10065;49.632;8.346;2023-02-05T04:00:05;9.03;;;3.10;;
19810;SDS011;10065;49.632;8.346;2023-02-05T04:02:35;7.10;;;3.10;;
19810;SDS011;10065;49.632;8.346;2023-02-05T04:05:04;9.20;;;3.07;;
19810;SDS011;10065;49.632;8.346;2023-02-05T04:07:32;11.17;;;4.30;;
19810;SDS011;10065;49.632;8.346;2023-02-05T04:10:00;10.33;;;3.67;;
19810;SDS011;10065;49.632;8.346;2023-02-05T04:12:28;7.60;;;2.90;;
19810;SDS011;10065;49.632;8.346;2023-02-05T04:14:56;9.90;;;3.90;;
19810;SDS011;10065;49.632;8.346;2023-02-05T04:17:24;8.20;;;4.00;;
19810;SDS011;10065;49.632;8.346;2023-02-05T04:19:53;10.70;;;3.53;;
19810;SDS011;10065;49.632;8.346;2023-02-05T04:22:21;8.10;;;3.83;;
19810;SDS011;10065;49.632;8.346;2023-02-05T04:24:49;10.40;;;4.00;;
19810;SDS011;10065;49.632;8.346;2023-02-05T04:27:16;10.07;;;3.77;;
19810;SDS011;10065;49.632;8.346;2023-02-05T04:29:44;5.97;;;3.20;;
19810;SDS011;10065;49.632;8.346;2023-02-05T04:32:12;6.97;;;3.50;;
19810;SDS011;10065;49.632;8.346;2023-02-05T04:34:40;8.33;;;3.27;;
19810;SDS011;10065;49.632;8.346;2023-02-05T04:37:09;8.57;;;3.63;;
19810;SDS011;10065;49.632;8.346;2023-02-05T04:39:37;8.20;;;3.67;;
19810;SDS011;10065;49.632;8.346;2023-02-05T04:42:05;7.17;;;3.70;;
19810;SDS011;10065;49.632;8.346;2023-02-05T04:44:33;10.43;;;4.47;;
19810;SDS011;10065;49.632;8.346;2023-02-05T04:47:01;9.83;;;3.47;;
19810;SDS011;10065;49.632;8.346;2023-02-05T04:49:30;8.90;;;3.40;;
19810;SDS011;10065;49.632;8.346;2023-02-05T04:51:58;8.03;;;4.00;;
19810;SDS011;10065;49.632;8.346;2023-02-05T04:54:27;9.83;;;4.17;;
19810;SDS011;10065;49.632;8.346;2023-02-05T04:56:55;9.93;;;4.10;;
19810;SDS011;10065;49.632;8.346;2023-02-05T04:59:23;11.33;;;4.07;;
19810;SDS011;10065;49.632;8.346;2023-02-05T05:01:51;15.57;;;4.00;;
19810;SDS011;10065;49.632;8.346;2023-02-05T05:04:19;9.67;;;4.03;;
19810;SDS011;10065;49.632;8.346;2023-02-05T05:06:46;10.33;;;4.50;;
19810;SDS011;10065;49.632;8.346;2023-02-05T05:09:14;13.97;;;4.60;;
19810;SDS011;10065;49.632;8.346;2023-02-05T05:11:43;10.13;;;4.40;;
19810;SDS011;10065;49.632;8.346;2023-02-05T05:14:11;8.17;;;4.07;;
19810;SDS011;10065;49.632;8.346;2023-02-05T05:16:39;9.17;;;4.33;;
19810;SDS011;10065;49.632;8.346;2023-02-05T05:19:07;9.50;;;3.77;;
19810;SDS011;10065;49.632;8.346;2023-02-05T05:21:35;10.23;;;4.37;;
19810;SDS011;10065;49.632;8.346;2023-02-05T05:24:03;8.87;;;4.27;;
19810;SDS011;10065;49.632;8.346;2023-02-05T05:26:31;10.67;;;3.83;;
19810;SDS011;10065;49.632;8.346;2023-02-05T05:29:00;7.37;;;4.17;;
19810;SDS011;10065;49.632;8.346;2023-02-05T05:31:28;9.30;;;4.33;;
19810;SDS011;10065;49.632;8.346;2023-02-05T05:33:56;10.10;;;4.00;;
19810;SDS011;10065;49.632;8.346;2023-02-05T05:36:23;7.37;;;4.10;;
19810;SDS011;10065;49.632;8.346;2023-02-05T05:38:51;11.67;;;4.10;;
19810;SDS011;10065;49.632;8.346;2023-02-05T05:41:20;9.17;;;3.93;;
19810;SDS011;10065;49.632;8.346;2023-02-05T05:44:13;9.37;;;3.97;;
19810;SDS011;10065;49.632;8.346;2023-02-05T05:46:41;8.50;;;4.37;;
19810;SDS011;10065;49.632;8.346;2023-02-05T05:49:09;11.13;;;4.60;;
19810;SDS011;10065;49.632;8.346;2023-02-05T05:51:36;10.40;;;4.30;;
19810;SDS011;10065;49.632;8.346;2023-02-05T05:54:04;9.13;;;4.07;;
19810;SDS011;10065;49.632;8.346;2023-02-05T05:56:32;11.63;;;5.03;;
19810;SDS011;10065;49.632;8.346;2023-02-05T05:59:01;7.87;;;4.87;;
19810;SDS011;10065;49.632;8.346;2023-02-05T06:01:30;11.10;;;4.67;;
19810;SDS011;10065;49.632;8.346;2023-02-05T06:03:57;9.33;;;3.90;;
19810;SDS011;10065;49.632;8.346;2023-02-05T06:06:28;9.40;;;4.57;;
19810;SDS011;10065;49.632;8.346;2023-02-05T06:08:56;8.70;;;4.47;;
19810;SDS011;10065;49.632;8.346;2023-02-05T06:11:24;10.30;;;4.50;;
19810;SDS011;10065;49.632;8.346;2023-02-05T06:13:52;10.23;;;4.73;;
19810;SDS011;10065;49.632;8.346;2023-02-05T06:16:19;10.43;;;4.00;;
19810;SDS011;10065;49.632;8.346;2023-02-05T06:18:48;12.90;;;4.40;;
19810;SDS011;10065;49.632;8.346;2023-02-05T06:21:16;13.70;;;4.80;;
19810;SDS011;10065;49.632;8.346;2023-02-05T06:23:44;9.87;;;4.57;;
19810;SDS011;10065;49.632;8.346;2023-02-05T06:26:11;11.47;;;4.43;;
19810;SDS011;10065;49.632;8.346;2023-02-05T06:28:39;10.60;;;4.70;;
19810;SDS011;10065;49.632;8.346;2023-02-05T06:31:07;11.13;;;5.13;;
19810;SDS011;10065;49.632;8.346;2023-02-05T06:33:34;12.70;;;5.23;;
19810;SDS011;10065;49.632;8.346;2023-02-05T06:36:04;12.33;;;5.10;;
19810;SDS011;10065;49.632;8.346;2023-02-05T06:38:32;13.27;;;5.17;;
19810;SDS011;10065;49.632;8.346;2023-02-05T06:41:00;13.37;;;5.60;;
19810;SDS011;10065;49.632;8.346;2023-02-05T06:43:28;12.63;;;5.60;;
19810;SDS011;10065;49.632;8.346;2023-02-05T06:45:55;10.80;;;5.60;;
19810;SDS011;10065;49.632;8.346;2023-02-05T06:48:23;13.17;;;5.67;;
19810;SDS011;10065;49.632;8.346;2023-02-05T06:50:51;10.37;;;5.53;;
19810;SDS011;10065;49.632;8.346;2023-02-05T06:53:20;12.57;;;4.40;;
19810;SDS011;10065;49.632;8.346;2023-02-05T06:55:47;11.17;;;5.17;;
19810;SDS011;10065;49.632;8.346;2023-02-05T06:58:15;16.57;;;6.07;;
19810;SDS011;10065;49.632;8.346;2023-02-05T07:00:43;12.97;;;6.43;;
19810;SDS011;10065;49.632;8.346;2023-02-05T07:03:10;10.30;;;5.30;;
19810;SDS011;10065;49.632;8.346;2023-02-05T07:05:38;14.87;;;5.50;;
19810;SDS011;10065;49.632;8.346;2023-02-05T07:08:06;13.10;;;6.20;;
19810;SDS011;10065;49.632;8.346;2023-02-05T07:10:35;12.93;;;6.30;;
19810;SDS011;10065;49.632;8.346;2023-02-05T07:13:16;11.00;;;5.97;;
19810;SDS011;10065;49.632;8.346;2023-02-05T07:15:47;10.33;;;5.83;;
19810;SDS011;10065;49.632;8.346;2023-02-05T07:18:15;11.97;;;6.13;;
19810;SDS011;10065;49.632;8.346;2023-02-05T07:20:42;14.13;;;6.23;;
19810;SDS011;10065;49.632;8.346;2023-02-05T07:23:10;14.67;;;6.33;;
19810;SDS011;10065;49.632;8.346;2023-02-05T07:25:39;12.57;;;5.97;;
19810;SDS011;10065;49.632;8.346;2023-02-05T07:28:07;14.17;;;6.00;;
19810;SDS011;10065;49.632;8.346;2023-02-05T07:30:35;10.93;;;6.20;;
19810;SDS011;10065;49.632;8.346;2023-02-05T07:33:03;15.40;;;6.27;;
19810;SDS011;10065;49.632;8.346;2023-02-05T07:35:31;13.10;;;6.23;;
19810;SDS011;10065;49.632;8.346;2023-02-05T07:38:00;14.10;;;6.43;;
19810;SDS011;10065;49.632;8.346;2023-02-05T07:40:28;15.67;;;7.30;;
19810;SDS011;10065;49.632;8.346;2023-02-05T07:42:57;14.37;;;6.57;;
19810;SDS011;10065;49.632;8.346;2023-02-05T07:45:25;12.70;;;6.80;;
19810;SDS011;10065;49.632;8.346;2023-02-05T07:47:53;18.63;;;6.20;;
19810;SDS011;10065;49.632;8.346;2023-02-05T07:50:20;15.97;;;7.13;;
19810;SDS011;10065;49.632;8.346;2023-02-05T07:52:48;10.03;;;6.03;;
19810;SDS011;10065;49.632;8.346;2023-02-05T07:55:16;14.07;;;6.90;;
19810;SDS011;10065;49.632;8.346;2023-02-05T07:57:43;11.97;;;6.07;;
19810;SDS011;10065;49.632;8.346;2023-02-05T08:00:13;12.73;;;5.97;;
19810;SDS011;10065;49.632;8.346;2023-02-05T08:02:41;13.03;;;6.30;;
19810;SDS011;10065;49.632;8.346;2023-02-05T08:05:09;12.30;;;6.33;;
19810;SDS011;10065;49.632;8.346;2023-02-05T08:07:37;12.67;;;6.60;;
19810;SDS011;10065;49.632;8.346;2023-02-05T08:10:04;12.50;;;7.33;;
19810;SDS011;10065;49.632;8.346;2023-02-05T08:12:33;15.77;;;6.90;;
19810;SDS011;10065;49.632;8.346;2023-02-05T08:15:00;13.97;;;7.20;;
19810;SDS011;10065;49.632;8.346;2023-02-05T08:17:30;14.63;;;6.60;;
19810;SDS011;10065;49.632;8.346;2023-02-05T08:19:57;19.07;;;8.17;;
19810;SDS011;10065;49.632;8.346;2023-02-05T08:22:32;13.83;;;7.17;;
19810;SDS011;10065;49.632;8.346;2023-02-05T08:25:01;14.67;;;6.00;;
19810;SDS011;10065;49.632;8.346;2023-02-05T08:27:30;19.67;;;7.67;;
19810;SDS011;10065;49.632;8.346;2023-02-05T08:29:58;14.93;;;7.27;;
19810;SDS011;10065;49.632;8.346;2023-02-05T08:32:26;17.97;;;7.93;;
19810;SDS011;10065;49.632;8.346;2023-02-05T08:34:55;14.27;;;6.90;;
19810;SDS011;10065;49.632;8.346;2023-02-05T08:37:24;14.77;;;7.47;;
19810;SDS011;10065;49.632;8.346;2023-02-05T08:39:52;19.87;;;7.70;;
19810;SDS011;10065;49.632;8.346;2023-02-05T08:42:20;14.53;;;7.30;;
19810;SDS011;10065;49.632;8.346;2023-02-05T08:44:50;14.93;;;7.60;;
19810;SDS011;10065;49.632;8.346;2023-02-05T08:47:18;16.23;;;7.77;;
19810;SDS011;10065;49.632;8.346;2023-02-05T08:49:46;17.00;;;8.30;;
19810;SDS011;10065;49.632;8.346;2023-02-05T08:52:15;19.23;;;7.90;;
19810;SDS011;10065;49.632;8.346;2023-02-05T08:54:43;20.87;;;8.50;;
19810;SDS011;10065;49.632;8.346;2023-02-05T08:57:11;16.90;;;7.10;;
19810;SDS011;10065;49.632;8.346;2023-02-05T08:59:39;17.17;;;7.90;;
19810;SDS011;10065;49.632;8.346;2023-02-05T09:02:08;12.73;;;6.37;;
19810;SDS011;10065;49.632;8.346;2023-02-05T09:04:40;14.67;;;7.50;;
19810;SDS011;10065;49.632;8.346;2023-02-05T09:07:08;13.07;;;7.50;;
19810;SDS011;10065;49.632;8.346;2023-02-05T09:09:37;19.17;;;8.30;;
19810;SDS011;10065;49.632;8.346;2023-02-05T09:12:05;20.50;;;7.60;;
19810;SDS011;10065;49.632;8.346;2023-02-05T09:14:33;17.23;;;8.50;;
19810;SDS011;10065;49.632;8.346;2023-02-05T09:17:06;18.60;;;8.60;;
19810;SDS011;10065;49.632;8.346;2023-02-05T09:19:35;20.63;;;8.57;;
19810;SDS011;10065;49.632;8.346;2023-02-05T09:22:04;23.77;;;9.67;;
19810;SDS011;10065;49.632;8.346;2023-02-05T09:24:33;17.60;;;9.47;;
19810;SDS011;10065;49.632;8.346;2023-02-05T09:27:04;19.47;;;9.37;;
19810;SDS011;10065;49.632;8.346;2023-02-05T09:29:32;22.80;;;9.90;;
19810;SDS011;10065;49.632;8.346;2023-02-05T09:31:59;19.63;;;8.83;;
19810;SDS011;10065;49.632;8.346;2023-02-05T09:34:27;21.53;;;10.17;;
19810;SDS011;10065;49.632;8.346;2023-02-05T09:36:54;22.40;;;9.63;;
19810;SDS011;10065;49.632;8.346;2023-02-05T09:39:22;20.53;;;8.80;;
19810;SDS011;10065;49.632;8.346;2023-02-05T09:42:13;16.57;;;9.43;;
19810;SDS011;10065;49.632;8.346;2023-02-05T09:44:56;21.40;;;9.53;;
19810;SDS011;10065;49.632;8.346;2023-02-05T09:47:34;17.50;;;8.97;;
19810;SDS011;10065;49.632;8.346;2023-02-05T09:50:11;19.43;;;9.40;;
19810;SDS011;10065;49.632;8.346;2023-02-05T09:52:44;18.67;;;9.50;;
19810;SDS011;10065;49.632;8.346;2023-02-05T09:55:18;21.23;;;10.07;;
19810;SDS011;10065;49.632;8.346;2023-02-05T09:57:50;19.00;;;9.43;;
19810;SDS011;10065;49.632;8.346;2023-02-05T10:00:23;21.30;;;8.73;;
19810;SDS011;10065;49.632;8.346;2023-02-05T10:02:55;18.77;;;8.70;;
19810;SDS011;10065;49.632;8.346;2023-02-05T10:05:28;23.27;;;10.13;;
19810;SDS011;10065;49.632;8.346;2023-02-05T10:08:02;21.17;;;10.20;;
19810;SDS011;10065;49.632;8.346;2023-02-05T10:10:35;17.13;;;9.00;;
19810;SDS011;10065;49.632;8.346;2023-02-05T10:13:28;15.47;;;8.63;;
19810;SDS011;10065;49.632;8.346;2023-02-05T10:22:06;23.40;;;10.43;;
19810;SDS011;10065;49.632;8.346;2023-02-05T10:24:52;20.97;;;10.13;;
19810;SDS011;10065;49.632;8.346;2023-02-05T10:27:41;21.67;;;9.90;;
19810;SDS011;10065;49.632;8.346;2023-02-05T10:30:19;19.43;;;10.03;;
19810;SDS011;10065;49.632;8.346;2023-02-05T10:32:54;22.90;;;10.03;;
19810;SDS011;10065;49.632;8.346;2023-02-05T10:35:25;21.73;;;9.93;;
19810;SDS011;10065;49.632;8.346;2023-02-05T10:38:00;22.80;;;10.23;;
19810;SDS011;10065;49.632;8.346;2023-02-05T10:40:31;18.33;;;9.83;;
19810;SDS011;10065;49.632;8.346;2023-02-05T10:43:09;26.80;;;10.40;;
19810;SDS011;10065;49.632;8.346;2023-02-05T10:45:46;15.93;;;9.53;;
19810;SDS011;10065;49.632;8.346;2023-02-05T10:48:26;19.97;;;10.70;;
19810;SDS011;10065;49.632;8.346;2023-02-05T10:51:06;20.00;;;10.30;;
19810;SDS011;10065;49.632;8.346;2023-02-05T10:53:39;17.53;;;9.83;;
19810;SDS011;10065;49.632;8.346;2023-02-05T10:56:07;20.43;;;10.90;;
19810;SDS011;10065;49.632;8.346;2023-02-05T10:58:42;21.37;;;10.43;;
19810;SDS011;10065;49.632;8.346;2023-02-05T11:01:15;27.87;;;11.90;;
19810;SDS011;10065;49.632;8.346;2023-02-05T11:03:47;21.63;;;10.97;;
19810;SDS011;10065;49.632;8.346;2023-02-05T11:06:19;20.77;;;11.17;;
19810;SDS011;10065;49.632;8.346;2023-02-05T11:08:49;19.93;;;10.47;;
19810;SDS011;10065;49.632;8.346;2023-02-05T11:11:18;20.33;;;12.23;;
19810;SDS011;10065;49.632;8.346;2023-02-05T11:13:49;21.30;;;10.83;;
19810;SDS011;10065;49.632;8.346;2023-02-05T11:16:21;22.00;;;11.07;;
19810;SDS011;10065;49.632;8.346;2023-02-05T11:18:57;24.43;;;11.87;;
19810;SDS011;10065;49.632;8.346;2023-02-05T11:24:27;23.73;;;11.50;;
19810;SDS011;10065;49.632;8.346;2023-02-05T11:29:58;24.63;;;12.87;;
19810;SDS011;10065;49.632;8.346;2023-02-05T11:35:54;21.77;;;11.67;;
19810;SDS011;10065;49.632;8.346;2023-02-05T11:38:25;23.27;;;13.40;;
19810;SDS011;10065;49.632;8.346;2023-02-05T11:40:58;24.33;;;14.70;;
19810;SDS011;10065;49.632;8.346;2023-02-05T11:43:29;21.27;;;13.20;;
19810;SDS011;10065;49.632;8.346;2023-02-05T11:45:59;22.60;;;11.37;;
19810;SDS011;10065;49.632;8.346;2023-02-05T11:48:32;23.17;;;12.73;;
19810;SDS011;10065;49.632;8.346;2023-02-05T11:51:05;21.47;;;12.77;;
19810;SDS011;10065;49.632;8.346;2023-02-05T11:53:35;24.10;;;13.90;;
19810;SDS011;10065;49.632;8.346;2023-02-05T11:56:06;23.40;;;12.77;;
19810;SDS011;10065;49.632;8.346;2023-02-05T11:58:37;26.13;;;14.00;;
19810;SDS011;10065;49.632;8.346;2023-02-05T12:01:19;24.83;;;13.27;;
19810;SDS011;10065;49.632;8.346;2023-02-05T12:03:57;23.43;;;13.83;;
19810;SDS011;10065;49.632;8.346;2023-02-05T12:06:28;22.20;;;12.73;;
19810;SDS011;10065;49.632;8.346;2023-02-05T12:08:59;25.23;;;12.10;;
19810;SDS011;10065;49.632;8.346;2023-02-05T12:11:42;24.77;;;12.50;;
19810;SDS011;10065;49.632;8.346;2023-02-05T12:14:42;21.97;;;13.50;;
19810;SDS011;10065;49.632;8.346;2023-02-05T12:17:19;21.63;;;12.10;;
19810;SDS011;10065;49.632;8.346;2023-02-05T12:19:57;24.63;;;14.37;;
19810;SDS011;10065;49.632;8.346;2023-02-05T12:22:50;21.27;;;13.00;;
19810;SDS011;10065;49.632;8.346;2023-02-05T12:25:29;23.93;;;13.87;;
19810;SDS011;10065;49.632;8.346;2023-02-05T12:28:11;22.73;;;12.07;;
19810;SDS011;10065;49.632;8.346;2023-02-05T12:30:52;21.83;;;12.70;;
19810;SDS011;10065;49.632;8.346;2023-02-05T12:33:32;23.47;;;12.90;;
19810;SDS011;10065;49.632;8.346;2023-02-05T12:36:16;25.57;;;13.30;;
19810;SDS011;10065;49.632;8.346;2023-02-05T12:38:58;21.57;;;12.87;;
19810;SDS011;10065;49.632;8.346;2023-02-05T12:41:36;22.40;;;13.40;;
19810;SDS011;10065;49.632;8.346;2023-02-05T12:44:18;22.40;;;12.87;;
19810;SDS011;10065;49.632;8.346;2023-02-05T12:47:00;19.63;;;12.70;;
19810;SDS011;10065;49.632;8.346;2023-02-05T12:49:43;25.00;;;13.77;;
19810;SDS011;10065;49.632;8.346;2023-02-05T12:52:27;23.53;;;13.90;;
19810;SDS011;10065;49.632;8.346;2023-02-05T12:55:12;22.43;;;13.50;;
19810;SDS011;10065;49.632;8.346;2023-02-05T12:57:50;24.97;;;13.53;;
19810;SDS011;10065;49.632;8.346;2023-02-05T13:00:21;22.90;;;13.80;;
19810;SDS011;10065;49.632;8.346;2023-02-05T13:02:54;25.23;;;14.00;;
19810;SDS011;10065;49.632;8.346;2023-02-05T13:05:31;22.63;;;13.53;;
19810;SDS011;10065;49.632;8.346;2023-02-05T13:08:04;21.00;;;12.77;;
19810;SDS011;10065;49.632;8.346;2023-02-05T13:10:37;25.63;;;13.23;;
19810;SDS011;10065;49.632;8.346;2023-02-05T13:13:13;19.40;;;12.40;;
19810;SDS011;10065;49.632;8.346;2023-02-05T13:15:45;21.13;;;12.33;;
19810;SDS011;10065;49.632;8.346;2023-02-05T13:18:24;20.43;;;11.03;;
19810;SDS011;10065;49.632;8.346;2023-02-05T13:20:56;21.43;;;12.87;;
19810;SDS011;10065;49.632;8.346;2023-02-05T13:23:45;20.50;;;12.63;;
19810;SDS011;10065;49.632;8.346;2023-02-05T13:26:33;22.43;;;11.67;;
19810;SDS011;10065;49.632;8.346;2023-02-05T13:29:23;21.07;;;11.83;;
19810;SDS011;10065;49.632;8.346;2023-02-05T13:31:56;21.60;;;12.07;;
19810;SDS011;10065;49.632;8.346;2023-02-05T13:34:45;19.33;;;11.90;;
19810;SDS011;10065;49.632;8.346;2023-02-05T13:37:28;23.93;;;13.03;;
19810;SDS011;10065;49.632;8.346;2023-02-05T13:40:19;21.37;;;12.77;;
19810;SDS011;10065;49.632;8.346;2023-02-05T13:43:08;23.30;;;13.67;;
19810;SDS011;10065;49.632;8.346;2023-02-05T13:45:58;20.10;;;12.70;;
19810;SDS011;10065;49.632;8.346;2023-02-05T13:48:48;21.83;;;13.10;;
19810;SDS011;10065;49.632;8.346;2023-02-05T13:51:40;23.93;;;13.57;;
19810;SDS011;10065;49.632;8.346;2023-02-05T13:54:26;23.73;;;14.57;;
19810;SDS011;10065;49.632;8.346;2023-02-05T13:57:33;25.07;;;14.10;;
19810;SDS011;10065;49.632;8.346;2023-02-05T14:00:27;24.37;;;15.33;;
19810;SDS011;10065;49.632;8.346;2023-02-05T14:02:55;27.43;;;15.17;;
19810;SDS011;10065;49.632;8.346;2023-02-05T14:05:31;21.97;;;14.07;;
19810;SDS011;10065;49.632;8.346;2023-02-05T14:08:02;21.93;;;14.20;;
19810;SDS011;10065;49.632;8.346;2023-02-05T14:10:31;23.30;;;14.33;;
19810;SDS011;10065;49.632;8.346;2023-02-05T14:13:11;21.83;;;14.73;;
19810;SDS011;10065;49.632;8.346;2023-02-05T14:15:44;26.93;;;16.17;;
19810;SDS011;10065;49.632;8.346;2023-02-05T14:18:44;28.03;;;16.10;;
19810;SDS011;10065;49.632;8.346;2023-02-05T14:24:24;26.30;;;15.43;;
19810;SDS011;10065;49.632;8.346;2023-02-05T14:33:28;26.27;;;15.37;;
19810;SDS011;10065;49.632;8.346;2023-02-05T14:36:29;29.47;;;16.93;;
19810;SDS011;10065;49.632;8.346;2023-02-05T14:38:59;27.93;;;16.87;;
19810;SDS011;10065;49.632;8.346;2023-02-05T14:41:46;25.03;;;14.80;;
19810;SDS011;10065;49.632;8.346;2023-02-05T14:44:19;28.50;;;15.70;;
19810;SDS011;10065;49.632;8.346;2023-02-05T14:46:55;24.13;;;16.07;;
19810;SDS011;10065;49.632;8.346;2023-02-05T14:49:28;23.17;;;15.87;;
19810;SDS011;10065;49.632;8.346;2023-02-05T14:52:02;24.73;;;16.00;;
19810;SDS011;10065;49.632;8.346;2023-02-05T14:54:34;25.37;;;16.13;;
19810;SDS011;10065;49.632;8.346;2023-02-05T14:57:11;26.27;;;16.13;;
19810;SDS011;10065;49.632;8.346;2023-02-05T14:59:49;25.80;;;15.63;;
19810;SDS011;10065;49.632;8.346;2023-02-05T15:05:20;22.80;;;13.43;;
19810;SDS011;10065;49.632;8.346;2023-02-05T15:07:59;22.20;;;14.17;;
19810;SDS011;10065;49.632;8.346;2023-02-05T15:10:36;25.43;;;14.87;;
19810;SDS011;10065;49.632;8.346;2023-02-05T15:13:14;20.27;;;12.70;;
19810;SDS011;10065;49.632;8.346;2023-02-05T15:18:44;19.10;;;10.67;;
19810;SDS011;10065;49.632;8.346;2023-02-05T15:21:15;21.93;;;12.30;;
19810;SDS011;10065;49.632;8.346;2023-02-05T15:23:50;20.00;;;12.80;;
19810;SDS011;10065;49.632;8.346;2023-02-05T15:26:24;18.50;;;10.93;;
19810;SDS011;10065;49.632;8.346;2023-02-05T15:28:59;23.20;;;12.07;;
19810;SDS011;10065;49.632;8.346;2023-02-05T15:31:32;17.80;;;11.67;;
19810;SDS011;10065;49.632;8.346;2023-02-05T15:37:03;22.63;;;11.83;;